sensor_id;sensor_type;location;lat;lon;timestamp;pressure;altitude;pressure_sealevel;temperature;humidity
51299;BME280;37382;45.192;9.790;2024-03-02T00:01:39;100311.66;;;11.20;100.00
51299;BME280;37382;45.192;9.790;2024-03-02T00:04:07;100304.09;;;11.29;100.00
51299;BME280;37382;45.192;9.790;2024-03-02T00:06:35;100305.38;;;11.13;100.00
51299;BME280;37382;45.192;9.790;2024-03-02T00:09:02;100310.63;;;11.08;100.00
51299;BME280;37382;45.192;9.790;2024-03-02T00:11:30;100310.41;;;11.16;100.00
51299;BME280;37382;45.192;9.790;2024-03-02T00:13:57;100315.19;;;11.20;100.00
51299;BME280;37382;45.192;9.790;2024-03-02T00:16:30;100307.31;;;10.92;100.00
51299;BME280;37382;45.192;9.790;2024-03-02T00:19:05;100312.50;;;11.14;100.00
51299;BME280;37382;45.192;9.790;2024-03-02T00:21:32;100312.94;;;11.11;100.00
51299;BME280;37382;45.192;9.790;2024-03-02T00:24:01;100315.44;;;10.99;100.00
51299;BME280;37382;45.192;9.790;2024-03-02T00:26:33;100314.63;;;10.98;100.00
51299;BME280;37382;45.192;9.790;2024-03-02T00:29:01;100314.00;;;11.03;100.00
51299;BME280;37382;45.192;9.790;2024-03-02T00:31:29;100318.78;;;11.21;100.00
51299;BME280;37382;45.192;9.790;2024-03-02T00:33:59;100322.78;;;11.12;100.00
51299;BME280;37382;45.192;9.790;2024-03-02T00:36:30;100324.22;;;11.21;100.00
51299;BME280;37382;45.192;9.790;2024-03-02T00:38:58;100319.44;;;11.03;100.00
51299;BME280;37382;45.192;9.790;2024-03-02T00:41:30;100322.56;;;11.13;100.00
51299;BME280;37382;45.192;9.790;2024-03-02T00:43:58;100326.34;;;10.99;100.00
51299;BME280;37382;45.192;9.790;2024-03-02T00:46:35;100321.72;;;11.06;100.00
51299;BME280;37382;45.192;9.790;2024-03-02T00:49:05;100324.00;;;11.16;100.00
51299;BME280;37382;45.192;9.790;2024-03-02T00:51:34;100328.84;;;11.07;100.00
51299;BME280;37382;45.192;9.790;2024-03-02T00:54:04;100330.09;;;11.18;100.00
51299;BME280;37382;45.192;9.790;2024-03-02T00:56:33;100324.44;;;11.13;100.00
51299;BME280;37382;45.192;9.790;2024-03-02T00:59:02;100329.69;;;11.08;100.00
51299;BME280;37382;45.192;9.790;2024-03-02T01:01:29;100320.91;;;11.06;100.00
51299;BME280;37382;45.192;9.790;2024-03-02T01:03:57;100317.31;;;11.05;100.00
51299;BME280;37382;45.192;9.790;2024-03-02T01:06:25;100318.56;;;11.16;100.00
51299;BME280;37382;45.192;9.790;2024-03-02T01:08:52;100326.56;;;10.97;100.00
51299;BME280;37382;45.192;9.790;2024-03-02T01:11:20;100331.38;;;10.95;100.00
51299;BME280;37382;45.192;9.790;2024-03-02T01:13:51;100325.50;;;10.98;100.00
51299;BME280;37382;45.192;9.790;2024-03-02T01:16:21;100328.03;;;11.00;100.00
51299;BME280;37382;45.192;9.790;2024-03-02T01:18:49;100318.78;;;11.21;100.00
51299;BME280;37382;45.192;9.790;2024-03-02T01:21:16;100328.22;;;11.12;100.00
51299;BME280;37382;45.192;9.790;2024-03-02T01:23:44;100322.94;;;11.30;100.00
51299;BME280;37382;45.192;9.790;2024-03-02T01:26:11;100319.22;;;11.18;100.00
51299;BME280;37382;45.192;9.790;2024-03-02T01:28:39;100324.88;;;11.03;100.00
51299;BME280;37382;45.192;9.790;2024-03-02T01:31:06;100327.19;;;10.93;100.00
51299;BME280;37382;45.192;9.790;2024-03-02T01:33:33;100334.31;;;11.07;100.00
51299;BME280;37382;45.192;9.790;2024-03-02T01:36:02;100328.00;;;11.13;100.00
51299;BME280;37382;45.192;9.790;2024-03-02T01:38:29;100329.25;;;11.11;100.00
51299;BME280;37382;45.192;9.790;2024-03-02T01:40:57;100325.03;;;11.28;100.00
51299;BME280;37382;45.192;9.790;2024-03-02T01:43:25;100327.16;;;11.19;100.00
51299;BME280;37382;45.192;9.790;2024-03-02T01:45:53;100330.09;;;11.18;100.00
51299;BME280;37382;45.192;9.790;2024-03-02T01:48:21;100315.00;;;11.22;100.00
51299;BME280;37382;45.192;9.790;2024-03-02T01:50:48;100324.22;;;11.14;100.00
51299;BME280;37382;45.192;9.790;2024-03-02T01:53:16;100321.91;;;11.11;100.00
51299;BME280;37382;45.192;9.790;2024-03-02T01:55:43;100328.84;;;11.14;100.00
51299;BME280;37382;45.192;9.790;2024-03-02T01:58:11;100333.03;;;11.10;100.00
51299;BME280;37382;45.192;9.790;2024-03-02T02:00:38;100322.19;;;10.96;100.00
51299;BME280;37382;45.192;9.790;2024-03-02T02:03:06;100324.44;;;11.06;100.00
51299;BME280;37382;45.192;9.790;2024-03-02T02:05:34;100325.94;;;11.09;100.00
51299;BME280;37382;45.192;9.790;2024-03-02T02:08:02;100316.94;;;10.95;100.00
51299;BME280;37382;45.192;9.790;2024-03-02T02:10:30;100322.56;;;11.00;100.00
51299;BME280;37382;45.192;9.790;2024-03-02T02:12:57;100328.44;;;11.03;100.00
51299;BME280;37382;45.192;9.790;2024-03-02T02:15:26;100322.16;;;11.03;100.00
51299;BME280;37382;45.192;9.790;2024-03-02T02:17:55;100323.00;;;10.97;100.00
51299;BME280;37382;45.192;9.790;2024-03-02T02:20:24;100319.44;;;10.96;100.00
51299;BME280;37382;45.192;9.790;2024-03-02T02:23:05;100325.72;;;10.90;100.00
51299;BME280;37382;45.192;9.790;2024-03-02T02:25:33;100321.53;;;11.01;100.00
51299;BME280;37382;45.192;9.790;2024-03-02T02:28:01;100321.94;;;11.18;100.00
51299;BME280;37382;45.192;9.790;2024-03-02T02:30:31;100317.53;;;11.03;100.00
51299;BME280;37382;45.192;9.790;2024-03-02T02:32:59;100317.97;;;10.80;100.00
51299;BME280;37382;45.192;9.790;2024-03-02T02:35:27;100314.63;;;10.92;100.00
51299;BME280;37382;45.192;9.790;2024-03-02T02:37:55;100319.84;;;11.13;100.00
51299;BME280;37382;45.192;9.790;2024-03-02T02:40:24;100310.22;;;10.84;100.00
51299;BME280;37382;45.192;9.790;2024-03-02T02:42:51;100307.31;;;10.79;100.00
51299;BME280;37382;45.192;9.790;2024-03-02T02:45:20;100307.72;;;10.89;100.00
51299;BME280;37382;45.192;9.790;2024-03-02T02:47:47;100309.59;;;11.02;100.00
51299;BME280;37382;45.192;9.790;2024-03-02T02:50:15;100312.31;;;10.95;100.00
51299;BME280;37382;45.192;9.790;2024-03-02T02:52:43;100308.34;;;10.98;100.00
51299;BME280;37382;45.192;9.790;2024-03-02T02:55:12;100304.38;;;10.94;100.00
51299;BME280;37382;45.192;9.790;2024-03-02T02:57:41;100307.50;;;10.97;100.00
51299;BME280;37382;45.192;9.790;2024-03-02T03:00:12;100310.66;;;10.88;100.00
51299;BME280;37382;45.192;9.790;2024-03-02T03:02:47;100310.84;;;10.93;100.00
51299;BME280;37382;45.192;9.790;2024-03-02T03:05:17;100305.41;;;10.93;100.00
51299;BME280;37382;45.192;9.790;2024-03-02T03:07:45;100307.31;;;10.72;100.00
51299;BME280;37382;45.192;9.790;2024-03-02T03:10:13;100305.84;;;10.83;100.00
51299;BME280;37382;45.192;9.790;2024-03-02T03:12:42;100308.56;;;10.96;100.00
51299;BME280;37382;45.192;9.790;2024-03-02T03:15:11;100304.16;;;10.82;100.00
51299;BME280;37382;45.192;9.790;2024-03-02T03:17:39;100310.22;;;10.84;100.00
51299;BME280;37382;45.192;9.790;2024-03-02T03:20:08;100314.19;;;10.75;100.00
51299;BME280;37382;45.192;9.790;2024-03-02T03:22:38;100312.53;;;10.80;100.00
51299;BME280;37382;45.192;9.790;2024-03-02T03:25:07;100315.69;;;10.77;100.00
51299;BME280;37382;45.192;9.790;2024-03-02T03:27:37;100308.34;;;10.78;100.00
51299;BME280;37382;45.192;9.790;2024-03-02T03:30:05;100320.69;;;10.60;100.00
51299;BME280;37382;45.192;9.790;2024-03-02T03:32:34;100321.75;;;10.66;100.00
51299;BME280;37382;45.192;9.790;2024-03-02T03:35:01;100322.38;;;10.61;100.00
51299;BME280;37382;45.192;9.790;2024-03-02T03:37:29;100315.91;;;10.69;100.00
51299;BME280;37382;45.192;9.790;2024-03-02T03:40:02;100325.50;;;10.65;100.00
51299;BME280;37382;45.192;9.790;2024-03-02T03:42:30;100319.44;;;10.70;100.00
51299;BME280;37382;45.192;9.790;2024-03-02T03:44:57;100325.72;;;10.63;100.00
51299;BME280;37382;45.192;9.790;2024-03-02T03:47:25;100321.75;;;10.73;100.00
51299;BME280;37382;45.192;9.790;2024-03-02T03:49:52;100322.16;;;10.76;100.00
51299;BME280;37382;45.192;9.790;2024-03-02T03:52:20;100321.53;;;10.81;100.00
51299;BME280;37382;45.192;9.790;2024-03-02T03:54:48;100321.34;;;10.69;100.00
51299;BME280;37382;45.192;9.790;2024-03-02T03:57:16;100329.09;;;10.72;100.00
51299;BME280;37382;45.192;9.790;2024-03-02T03:59:43;100327.59;;;10.76;100.00
51299;BME280;37382;45.192;9.790;2024-03-02T04:02:11;100332.00;;;10.77;100.00
51299;BME280;37382;45.192;9.790;2024-03-02T04:04:40;100325.09;;;10.75;100.00
51299;BME280;37382;45.192;9.790;2024-03-02T04:07:07;100329.69;;;10.74;100.00
51299;BME280;37382;45.192;9.790;2024-03-02T04:09:34;100333.88;;;10.63;100.00
51299;BME280;37382;45.192;9.790;2024-03-02T04:12:02;100337.84;;;10.61;100.00
51299;BME280;37382;45.192;9.790;2024-03-02T04:14:30;100336.19;;;10.60;100.00
51299;BME280;37382;45.192;9.790;2024-03-02T04:16:57;100335.53;;;10.44;100.00
51299;BME280;37382;45.192;9.790;2024-03-02T04:19:24;100339.34;;;10.57;100.00
51299;BME280;37382;45.192;9.790;2024-03-02T04:21:52;100342.84;;;10.50;100.00
51299;BME280;37382;45.192;9.790;2024-03-02T04:24:19;100346.44;;;10.51;100.00
51299;BME280;37382;45.192;9.790;2024-03-02T04:26:47;100345.16;;;10.47;100.00
51299;BME280;37382;45.192;9.790;2024-03-02T04:29:14;100356.25;;;10.65;100.00
51299;BME280;37382;45.192;9.790;2024-03-02T04:31:41;100354.41;;;10.66;100.00
51299;BME280;37382;45.192;9.790;2024-03-02T04:34:09;100360.47;;;10.61;100.00
51299;BME280;37382;45.192;9.790;2024-03-02T04:36:36;100353.13;;;10.55;100.00
51299;BME280;37382;45.192;9.790;2024-03-02T04:39:04;100361.50;;;10.60;100.00
51299;BME280;37382;45.192;9.790;2024-03-02T04:41:31;100358.97;;;10.52;100.00
51299;BME280;37382;45.192;9.790;2024-03-02T04:43:59;100372.34;;;10.47;100.00
51299;BME280;37382;45.192;9.790;2024-03-02T04:46:26;100366.50;;;10.43;100.00
51299;BME280;37382;45.192;9.790;2024-03-02T04:48:53;100369.22;;;10.43;100.00
51299;BME280;37382;45.192;9.790;2024-03-02T04:51:24;100373.22;;;10.54;100.00
51299;BME280;37382;45.192;9.790;2024-03-02T04:53:51;100378.84;;;10.53;100.00
51299;BME280;37382;45.192;9.790;2024-03-02T04:56:19;100364.22;;;10.54;100.00
51299;BME280;37382;45.192;9.790;2024-03-02T04:58:50;100366.94;;;10.60;100.00
51299;BME280;37382;45.192;9.790;2024-03-02T05:01:17;100378.00;;;10.52;100.00
51299;BME280;37382;45.192;9.790;2024-03-02T05:03:45;100370.69;;;10.53;100.00
51299;BME280;37382;45.192;9.790;2024-03-02T05:06:12;100378.66;;;10.61;100.00
51299;BME280;37382;45.192;9.790;2024-03-02T05:08:40;100377.81;;;10.54;100.00
51299;BME280;37382;45.192;9.790;2024-03-02T05:11:07;100373.38;;;10.46;100.00
51299;BME280;37382;45.192;9.790;2024-03-02T05:13:53;100378.81;;;10.46;100.00
51299;BME280;37382;45.192;9.790;2024-03-02T05:16:20;100381.34;;;10.47;100.00
51299;BME280;37382;45.192;9.790;2024-03-02T05:18:48;100382.41;;;10.53;100.00
51299;BME280;37382;45.192;9.790;2024-03-02T05:21:15;100376.38;;;10.64;100.00
51299;BME280;37382;45.192;9.790;2024-03-02T05:23:42;100381.78;;;10.51;100.00
51299;BME280;37382;45.192;9.790;2024-03-02T05:26:11;100386.38;;;10.50;100.00
51299;BME280;37382;45.192;9.790;2024-03-02T05:28:41;100388.88;;;10.45;100.00
51299;BME280;37382;45.192;9.790;2024-03-02T05:31:15;100402.03;;;10.35;100.00
51299;BME280;37382;45.192;9.790;2024-03-02T05:33:43;100398.09;;;10.51;100.00
51299;BME280;37382;45.192;9.790;2024-03-02T05:36:10;100389.94;;;10.58;100.00
51299;BME280;37382;45.192;9.790;2024-03-02T05:38:38;100392.91;;;10.63;100.00
51299;BME280;37382;45.192;9.790;2024-03-02T05:41:05;100398.75;;;10.60;100.00
51299;BME280;37382;45.192;9.790;2024-03-02T05:43:32;100405.03;;;10.54;100.00
51299;BME280;37382;45.192;9.790;2024-03-02T05:46:00;100402.50;;;10.59;100.00
51299;BME280;37382;45.192;9.790;2024-03-02T05:48:27;100399.13;;;10.50;100.00
51299;BME280;37382;45.192;9.790;2024-03-02T05:50:55;100398.34;;;10.63;100.00
51299;BME280;37382;45.192;9.790;2024-03-02T05:53:22;100401.69;;;10.65;100.00
51299;BME280;37382;45.192;9.790;2024-03-02T05:55:49;100406.06;;;10.53;100.00
51299;BME280;37382;45.192;9.790;2024-03-02T05:58:22;100411.09;;;10.56;100.00
51299;BME280;37382;45.192;9.790;2024-03-02T06:01:01;100407.13;;;10.72;100.00
51299;BME280;37382;45.192;9.790;2024-03-02T06:03:28;100415.50;;;10.63;100.00
51299;BME280;37382;45.192;9.790;2024-03-02T06:05:56;100418.63;;;10.60;100.00
51299;BME280;37382;45.192;9.790;2024-03-02T06:08:23;100419.66;;;10.59;100.00
51299;BME280;37382;45.192;9.790;2024-03-02T06:10:50;100421.50;;;10.52;100.00
51299;BME280;37382;45.192;9.790;2024-03-02T06:13:18;100425.66;;;10.41;100.00
51299;BME280;37382;45.192;9.790;2024-03-02T06:15:45;100424.22;;;10.45;100.00
51299;BME280;37382;45.192;9.790;2024-03-02T06:18:13;100428.03;;;10.51;100.00
51299;BME280;37382;45.192;9.790;2024-03-02T06:20:40;100428.06;;;10.71;100.00
51299;BME280;37382;45.192;9.790;2024-03-02T06:23:08;100429.06;;;10.50;100.00
51299;BME280;37382;45.192;9.790;2024-03-02T06:25:35;100435.97;;;10.59;100.00
51299;BME280;37382;45.192;9.790;2024-03-02T06:28:03;100435.97;;;10.59;100.00
51299;BME280;37382;45.192;9.790;2024-03-02T06:30:31;100439.97;;;10.63;100.00
51299;BME280;37382;45.192;9.790;2024-03-02T06:32:59;100438.09;;;10.64;100.00
51299;BME280;37382;45.192;9.790;2024-03-02T06:35:26;100444.97;;;10.53;100.00
51299;BME280;37382;45.192;9.790;2024-03-02T06:37:53;100444.72;;;10.41;100.00
51299;BME280;37382;45.192;9.790;2024-03-02T06:40:21;100452.66;;;10.36;100.00
51299;BME280;37382;45.192;9.790;2024-03-02T06:42:49;100455.16;;;10.38;100.00
51299;BME280;37382;45.192;9.790;2024-03-02T06:45:16;100458.91;;;10.37;100.00
51299;BME280;37382;45.192;9.790;2024-03-02T06:47:44;100456.00;;;10.38;100.00
51299;BME280;37382;45.192;9.790;2024-03-02T06:50:11;100466.66;;;10.33;100.00
51299;BME280;37382;45.192;9.790;2024-03-02T06:52:39;100457.38;;;10.27;100.00
51299;BME280;37382;45.192;9.790;2024-03-02T06:55:07;100462.75;;;10.56;100.00
51299;BME280;37382;45.192;9.790;2024-03-02T06:57:34;100460.25;;;10.54;100.00
51299;BME280;37382;45.192;9.790;2024-03-02T07:00:02;100475.91;;;10.52;100.00
51299;BME280;37382;45.192;9.790;2024-03-02T07:02:32;100479.50;;;10.53;100.00
51299;BME280;37382;45.192;9.790;2024-03-02T07:04:59;100471.94;;;10.55;100.00
51299;BME280;37382;45.192;9.790;2024-03-02T07:07:27;100481.22;;;10.74;100.00
51299;BME280;37382;45.192;9.790;2024-03-02T07:09:54;100478.09;;;10.77;100.00
51299;BME280;37382;45.192;9.790;2024-03-02T07:12:21;100486.69;;;10.74;100.00
51299;BME280;37382;45.192;9.790;2024-03-02T07:14:49;100488.53;;;10.66;100.00
51299;BME280;37382;45.192;9.790;2024-03-02T07:17:32;100497.81;;;10.92;100.00
51299;BME280;37382;45.192;9.790;2024-03-02T07:19:59;100502.34;;;10.65;100.00
51299;BME280;37382;45.192;9.790;2024-03-02T07:22:27;100499.63;;;10.72;100.00
51299;BME280;37382;45.192;9.790;2024-03-02T07:24:54;100503.81;;;10.67;100.00
51299;BME280;37382;45.192;9.790;2024-03-02T07:27:21;100506.94;;;10.64;100.00
51299;BME280;37382;45.192;9.790;2024-03-02T07:29:49;100502.75;;;10.68;100.00
51299;BME280;37382;45.192;9.790;2024-03-02T07:32:17;100514.91;;;10.73;100.00
51299;BME280;37382;45.192;9.790;2024-03-02T07:34:44;100508.25;;;10.82;100.00
51299;BME280;37382;45.192;9.790;2024-03-02T07:37:11;100514.50;;;10.76;100.00
51299;BME280;37382;45.192;9.790;2024-03-02T07:39:40;100518.06;;;10.76;100.00
51299;BME280;37382;45.192;9.790;2024-03-02T07:42:08;100512.44;;;10.84;100.00
51299;BME280;37382;45.192;9.790;2024-03-02T07:44:35;100514.31;;;10.84;100.00
51299;BME280;37382;45.192;9.790;2024-03-02T07:47:03;100521.84;;;10.75;100.00
51299;BME280;37382;45.192;9.790;2024-03-02T07:49:30;100521.84;;;10.82;100.00
51299;BME280;37382;45.192;9.790;2024-03-02T07:51:58;100523.13;;;10.86;100.00
51299;BME280;37382;45.192;9.790;2024-03-02T07:54:26;100524.19;;;10.92;100.00
51299;BME280;37382;45.192;9.790;2024-03-02T07:56:53;100534.00;;;10.86;100.00
51299;BME280;37382;45.192;9.790;2024-03-02T07:59:21;100539.41;;;10.73;100.00
51299;BME280;37382;45.192;9.790;2024-03-02T08:01:49;100537.13;;;10.83;100.00
51299;BME280;37382;45.192;9.790;2024-03-02T08:04:18;100537.16;;;10.90;100.00
51299;BME280;37382;45.192;9.790;2024-03-02T08:06:45;100541.50;;;10.77;100.00
51299;BME280;37382;45.192;9.790;2024-03-02T08:09:14;100533.34;;;10.84;100.00
51299;BME280;37382;45.192;9.790;2024-03-02T08:11:41;100546.34;;;10.89;100.00
51299;BME280;37382;45.192;9.790;2024-03-02T08:14:09;100540.53;;;10.92;100.00
51299;BME280;37382;45.192;9.790;2024-03-02T08:16:36;100531.13;;;11.08;100.00
51299;BME280;37382;45.192;9.790;2024-03-02T08:19:04;100538.25;;;11.09;100.00
51299;BME280;37382;45.192;9.790;2024-03-02T08:21:32;100541.19;;;11.07;100.00
51299;BME280;37382;45.192;9.790;2024-03-02T08:24:02;100543.03;;;11.00;100.00
51299;BME280;37382;45.192;9.790;2024-03-02T08:26:30;100540.75;;;11.03;100.00
51299;BME280;37382;45.192;9.790;2024-03-02T08:28:59;100545.16;;;10.98;100.00
51299;BME280;37382;45.192;9.790;2024-03-02T08:31:29;100543.72;;;11.22;100.00
51299;BME280;37382;45.192;9.790;2024-03-02T08:33:56;100545.59;;;11.21;100.00
51299;BME280;37382;45.192;9.790;2024-03-02T08:36:27;100546.25;;;11.37;100.00
51299;BME280;37382;45.192;9.790;2024-03-02T08:38:55;100545.41;;;11.43;100.00
51299;BME280;37382;45.192;9.790;2024-03-02T08:41:22;100552.31;;;11.32;100.00
51299;BME280;37382;45.192;9.790;2024-03-02T08:43:50;100555.88;;;11.26;100.00
51299;BME280;37382;45.192;9.790;2024-03-02T08:46:17;100560.50;;;11.26;100.00
51299;BME280;37382;45.192;9.790;2024-03-02T08:48:45;100557.53;;;11.14;100.00
51299;BME280;37382;45.192;9.790;2024-03-02T08:51:12;100565.06;;;11.25;100.00
51299;BME280;37382;45.192;9.790;2024-03-02T08:53:40;100559.66;;;11.32;100.00
51299;BME280;37382;45.192;9.790;2024-03-02T08:56:07;100556.09;;;11.38;100.00
51299;BME280;37382;45.192;9.790;2024-03-02T08:58:35;100560.09;;;11.49;100.00
51299;BME280;37382;45.192;9.790;2024-03-02T09:01:02;100562.19;;;11.40;100.00
51299;BME280;37382;45.192;9.790;2024-03-02T09:03:30;100560.09;;;11.49;100.00
51299;BME280;37382;45.192;9.790;2024-03-02T09:06:00;100555.25;;;11.51;100.00
51299;BME280;37382;45.192;9.790;2024-03-02T09:08:28;100566.81;;;11.53;100.00
51299;BME280;37382;45.192;9.790;2024-03-02T09:10:56;100564.47;;;11.30;100.00
51299;BME280;37382;45.192;9.790;2024-03-02T09:13:23;100565.72;;;11.27;100.00
51299;BME280;37382;45.192;9.790;2024-03-02T09:15:51;100568.06;;;11.44;100.00
51299;BME280;37382;45.192;9.790;2024-03-02T09:18:18;100565.72;;;11.34;100.00
51299;BME280;37382;45.192;9.790;2024-03-02T09:20:46;100568.84;;;11.17;100.00
51299;BME280;37382;45.192;9.790;2024-03-02T09:23:14;100570.09;;;11.28;100.00
51299;BME280;37382;45.192;9.790;2024-03-02T09:25:41;100577.28;;;11.36;100.00
51299;BME280;37382;45.192;9.790;2024-03-02T09:28:10;100572.66;;;11.43;100.00
51299;BME280;37382;45.192;9.790;2024-03-02T09:30:38;100571.81;;;11.49;100.00
51299;BME280;37382;45.192;9.790;2024-03-02T09:33:05;100574.34;;;11.37;100.00
51299;BME280;37382;45.192;9.790;2024-03-02T09:35:35;100579.13;;;11.35;100.00
51299;BME280;37382;45.192;9.790;2024-03-02T09:38:03;100586.03;;;11.18;100.00
51299;BME280;37382;45.192;9.790;2024-03-02T09:40:31;100581.81;;;11.22;100.00
51299;BME280;37382;45.192;9.790;2024-03-02T09:42:59;100587.31;;;11.29;100.00
51299;BME280;37382;45.192;9.790;2024-03-02T09:45:27;100586.47;;;11.35;100.00
51299;BME280;37382;45.192;9.790;2024-03-02T09:47:55;100588.78;;;11.38;100.00
51299;BME280;37382;45.192;9.790;2024-03-02T09:50:23;100590.47;;;11.46;100.00
51299;BME280;37382;45.192;9.790;2024-03-02T09:52:52;100586.28;;;11.36;100.00
51299;BME280;37382;45.192;9.790;2024-03-02T09:55:20;100584.13;;;11.18;100.00
51299;BME280;37382;45.192;9.790;2024-03-02T09:57:47;100586.06;;;11.31;100.00
51299;BME280;37382;45.192;9.790;2024-03-02T10:00:17;100591.94;;;11.55;100.00
51299;BME280;37382;45.192;9.790;2024-03-02T10:02:45;100586.09;;;11.58;100.00
51299;BME280;37382;45.192;9.790;2024-03-02T10:05:26;100582.75;;;11.56;100.00
51299;BME280;37382;45.192;9.790;2024-03-02T10:08:03;100578.56;;;11.67;100.00
51299;BME280;37382;45.192;9.790;2024-03-02T10:10:37;100567.03;;;11.98;100.00
51299;BME280;37382;45.192;9.790;2024-03-02T10:13:10;100570.59;;;12.12;100.00
51299;BME280;37382;45.192;9.790;2024-03-02T10:15:40;100563.16;;;12.39;100.00
51299;BME280;37382;45.192;9.790;2024-03-02T10:18:09;100576.66;;;12.21;100.00
51299;BME280;37382;45.192;9.790;2024-03-02T10:20:39;100578.16;;;12.17;100.00
51299;BME280;37382;45.192;9.790;2024-03-02T10:23:13;100577.66;;;12.33;100.00
51299;BME280;37382;45.192;9.790;2024-03-02T10:25:42;100576.03;;;12.05;100.00
51299;BME280;37382;45.192;9.790;2024-03-02T10:28:23;100591.31;;;11.66;100.00
51299;BME280;37382;45.192;9.790;2024-03-02T10:30:51;100597.00;;;11.71;100.00
51299;BME280;37382;45.192;9.790;2024-03-02T10:33:20;100593.03;;;11.74;100.00
51299;BME280;37382;45.192;9.790;2024-03-02T10:35:49;100593.63;;;11.43;100.00
51299;BME280;37382;45.192;9.790;2024-03-02T10:38:17;100588.59;;;11.46;100.00
51299;BME280;37382;45.192;9.790;2024-03-02T10:40:48;100601.38;;;11.39;100.00
51299;BME280;37382;45.192;9.790;2024-03-02T10:43:18;100593.81;;;11.48;100.00
51299;BME280;37382;45.192;9.790;2024-03-02T10:45:49;100591.09;;;11.48;100.00
51299;BME280;37382;45.192;9.790;2024-03-02T10:48:16;100589.63;;;11.58;100.00
51299;BME280;37382;45.192;9.790;2024-03-02T10:50:44;100596.56;;;11.54;100.00
51299;BME280;37382;45.192;9.790;2024-03-02T10:53:12;100595.09;;;11.45;100.00
51299;BME280;37382;45.192;9.790;2024-03-02T10:55:39;100594.69;;;11.48;100.00
51299;BME280;37382;45.192;9.790;2024-03-02T10:58:11;100596.97;;;11.58;100.00
51299;BME280;37382;45.192;9.790;2024-03-02T11:00:40;100596.34;;;11.49;100.00
51299;BME280;37382;45.192;9.790;2024-03-02T11:03:09;100598.66;;;11.46;100.00
51299;BME280;37382;45.192;9.790;2024-03-02T11:05:41;100599.28;;;11.54;100.00
51299;BME280;37382;45.192;9.790;2024-03-02T11:08:16;100600.34;;;11.47;100.00
51299;BME280;37382;45.192;9.790;2024-03-02T11:10:58;100598.44;;;11.41;100.00
51299;BME280;37382;45.192;9.790;2024-03-02T11:13:31;100603.84;;;11.34;100.00
51299;BME280;37382;45.192;9.790;2024-03-02T11:16:04;100603.25;;;11.45;100.00
51299;BME280;37382;45.192;9.790;2024-03-02T11:18:33;100600.13;;;11.48;100.00
51299;BME280;37382;45.192;9.790;2024-03-02T11:21:02;100598.84;;;11.51;100.00
51299;BME280;37382;45.192;9.790;2024-03-02T11:23:33;100601.19;;;11.67;100.00
51299;BME280;37382;45.192;9.790;2024-03-02T11:26:18;100597.84;;;11.79;100.00
51299;BME280;37382;45.192;9.790;2024-03-02T11:28:46;100596.81;;;11.93;100.00
51299;BME280;37382;45.192;9.790;2024-03-02T11:31:14;100588.03;;;12.04;100.00
51299;BME280;37382;45.192;9.790;2024-03-02T11:33:41;100582.56;;;12.04;100.00
51299;BME280;37382;45.192;9.790;2024-03-02T11:36:10;100581.28;;;12.20;100.00
51299;BME280;37382;45.192;9.790;2024-03-02T11:38:43;100585.00;;;12.46;100.00
51299;BME280;37382;45.192;9.790;2024-03-02T11:41:10;100575.56;;;12.42;100.00
51299;BME280;37382;45.192;9.790;2024-03-02T11:43:39;100579.13;;;12.42;100.00
51299;BME280;37382;45.192;9.790;2024-03-02T11:46:07;100566.13;;;12.38;100.00
51299;BME280;37382;45.192;9.790;2024-03-02T11:48:36;100572.38;;;12.58;100.00
51299;BME280;37382;45.192;9.790;2024-03-02T11:51:05;100558.09;;;12.56;100.00
51299;BME280;37382;45.192;9.790;2024-03-02T11:53:33;100565.25;;;12.51;100.00
51299;BME280;37382;45.192;9.790;2024-03-02T11:56:03;100558.53;;;12.46;100.00
51299;BME280;37382;45.192;9.790;2024-03-02T11:58:35;100554.72;;;12.61;100.00
51299;BME280;37382;45.192;9.790;2024-03-02T12:01:03;100554.00;;;12.79;100.00
51299;BME280;37382;45.192;9.790;2024-03-02T12:03:32;100556.09;;;12.84;100.00
51299;BME280;37382;45.192;9.790;2024-03-02T12:05:59;100551.69;;;12.76;100.00
51299;BME280;37382;45.192;9.790;2024-03-02T12:08:27;100553.25;;;12.58;100.00
51299;BME280;37382;45.192;9.790;2024-03-02T12:10:59;100555.25;;;12.24;100.00
51299;BME280;37382;45.192;9.790;2024-03-02T12:13:28;100551.22;;;12.40;100.00
51299;BME280;37382;45.192;9.790;2024-03-02T12:15:56;100554.59;;;12.42;100.00
51299;BME280;37382;45.192;9.790;2024-03-02T12:18:24;100549.59;;;12.26;100.00
51299;BME280;37382;45.192;9.790;2024-03-02T12:20:52;100548.34;;;12.08;100.00
51299;BME280;37382;45.192;9.790;2024-03-02T12:23:23;100545.63;;;11.95;100.00
51299;BME280;37382;45.192;9.790;2024-03-02T12:25:51;100545.22;;;12.05;100.00
51299;BME280;37382;45.192;9.790;2024-03-02T12:28:19;100544.75;;;12.28;100.00
51299;BME280;37382;45.192;9.790;2024-03-02T12:30:47;100542.44;;;12.25;100.00
51299;BME280;37382;45.192;9.790;2024-03-02T12:33:16;100540.59;;;12.12;100.00
51299;BME280;37382;45.192;9.790;2024-03-02T12:35:44;100537.25;;;12.17;100.00
51299;BME280;37382;45.192;9.790;2024-03-02T12:38:14;100536.53;;;12.41;100.00
51299;BME280;37382;45.192;9.790;2024-03-02T12:40:42;100536.50;;;12.48;100.00
51299;BME280;37382;45.192;9.790;2024-03-02T12:43:09;100533.59;;;12.36;100.00
51299;BME280;37382;45.192;9.790;2024-03-02T12:45:38;100541.16;;;12.34;100.00
51299;BME280;37382;45.192;9.790;2024-03-02T12:48:05;100543.69;;;12.36;100.00